Time;durP1;ratioP1;P1;durP2;ratioP2;P2;SDS_P1;SDS_P2;PMS_P1;PMS_P2;Temp;Humidity;BMP_temperature;BMP_pressure;BME280_temperature;BME280_humidity;BME280_pressure;Samples;Min_cycle;Max_cycle;Signal;HPM_P1;HPM_P2
2023/06/13 00:01:48;;;;;;;8.43;5.23;;;17.40;1.00;;;;;;5053704;28;20282;-71
2023/06/13 00:04:24;;;;;;;6.33;5.80;;;17.40;1.00;;;;;;5053762;28;20552;-72
2023/06/13 00:06:52;;;;;;;9.40;5.43;;;17.40;1.00;;;;;;5053266;28;20424;-73
2023/06/13 00:09:18;;;;;;;6.30;5.60;;;17.40;1.00;;;;;;5053671;28;20448;-71
2023/06/13 00:11:45;;;;;;;7.20;5.93;;;17.50;1.00;;;;;;5053398;28;20460;-72
2023/06/13 00:14:11;;;;;;;6.17;5.57;;;17.50;1.00;;;;;;5053658;28;20693;-72
2023/06/13 00:16:38;;;;;;;5.17;4.73;;;17.50;1.00;;;;;;5053601;28;20496;-72
2023/06/13 00:19:04;;;;;;;6.03;5.53;;;17.40;1.00;;;;;;5053347;28;20878;-72
2023/06/13 00:21:32;;;;;;;5.73;5.30;;;17.40;1.00;;;;;;5053127;28;20413;-72
2023/06/13 00:24:00;;;;;;;6.13;5.57;;;17.40;1.00;;;;;;5053436;28;20949;-71
2023/06/13 00:26:26;;;;;;;6.47;5.43;;;17.30;1.00;;;;;;5053483;28;20412;-71
2023/06/13 00:28:52;;;;;;;6.00;5.40;;;17.40;1.00;;;;;;5053010;28;20433;-71
2023/06/13 00:31:19;;;;;;;5.47;5.07;;;17.30;1.00;;;;;;5053157;28;20170;-72
2023/06/13 00:33:45;;;;;;;6.33;5.23;;;17.30;1.00;;;;;;5051600;28;20417;-72
2023/06/13 00:36:16;;;;;;;6.70;5.67;;;17.30;1.00;;;;;;5051680;28;20417;-71
2023/06/13 00:38:42;;;;;;;5.70;5.30;;;17.20;1.00;;;;;;5053117;28;20835;-71
2023/06/13 00:41:08;;;;;;;6.17;5.63;;;17.20;1.00;;;;;;5051595;28;20438;-71
2023/06/13 00:43:34;;;;;;;5.40;5.00;;;17.10;1.00;;;;;;5052717;28;20405;-71
2023/06/13 00:46:00;;;;;;;7.10;5.33;;;17.10;1.00;;;;;;5052832;28;20194;-72
2023/06/13 00:48:27;;;;;;;5.73;4.73;;;17.00;1.00;;;;;;5052848;28;20511;-72
2023/06/13 00:50:54;;;;;;;6.30;5.33;;;17.00;1.00;;;;;;5052948;28;20453;-71
2023/06/13 00:53:21;;;;;;;5.30;4.90;;;17.00;1.00;;;;;;5052614;28;20433;-71
2023/06/13 00:55:49;;;;;;;8.10;4.50;;;17.00;1.00;;;;;;5053225;28;20417;-69
2023/06/13 00:58:16;;;;;;;7.93;5.50;;;16.90;1.00;;;;;;5051400;28;20825;-69
2023/06/13 01:00:44;;;;;;;6.50;5.20;;;16.90;1.00;;;;;;5052594;28;20779;-69
2023/06/13 01:03:14;;;;;;;5.47;5.07;;;16.90;1.00;;;;;;5052367;28;20417;-69
2023/06/13 01:05:40;;;;;;;5.30;4.80;;;16.80;1.00;;;;;;5052529;28;20496;-69
2023/06/13 01:08:27;;;;;;;5.60;5.10;;;16.80;1.00;;;;;;5052712;28;20456;-70
2023/06/13 01:10:59;;;;;;;9.17;5.50;;;16.80;1.00;;;;;;5052672;28;20453;-70
2023/06/13 01:13:54;;;;;;;5.40;4.57;;;16.70;1.00;;;;;;5051348;28;20772;-70
2023/06/13 01:16:41;;;;;;;5.90;5.40;;;16.70;1.00;;;;;;4997462;28;20439;-69
2023/06/13 01:19:18;;;;;;;5.17;4.67;;;16.60;1.00;;;;;;5052064;28;20482;-70
2023/06/13 01:21:45;;;;;;;7.40;5.53;;;16.60;1.00;;;;;;5050704;28;20423;-70
2023/06/13 01:24:19;;;;;;;5.60;5.10;;;16.50;1.00;;;;;;5052199;28;20470;-70
2023/06/13 01:26:56;;;;;;;5.23;4.83;;;16.50;1.00;;;;;;5052279;28;20409;-70
2023/06/13 01:29:22;;;;;;;6.60;5.70;;;16.50;1.00;;;;;;5052000;28;20830;-70
2023/06/13 01:31:52;;;;;;;7.33;4.87;;;16.40;1.00;;;;;;5050509;28;20545;-70
2023/06/13 01:34:17;;;;;;;5.63;5.10;;;16.30;1.00;;;;;;5051914;28;20421;-70
2023/06/13 01:36:43;;;;;;;7.43;4.90;;;16.30;1.00;;;;;;5051858;28;20486;-70
2023/06/13 01:39:09;;;;;;;6.00;5.27;;;16.20;1.00;;;;;;5051636;28;20647;-70
2023/06/13 01:41:35;;;;;;;6.77;4.80;;;16.10;1.00;;;;;;5051463;28;20412;-70
2023/06/13 01:44:03;;;;;;;5.50;4.90;;;16.10;1.00;;;;;;5051731;28;20559;-70
2023/06/13 01:46:31;;;;;;;6.60;6.00;;;16.00;1.00;;;;;;5051530;28;20605;-70
2023/06/13 01:49:23;;;;;;;5.30;4.80;;;16.00;1.00;;;;;;5050384;28;20995;-70
2023/06/13 01:52:13;;;;;;;5.97;5.47;;;15.90;1.00;;;;;;5050278;28;20643;-70
2023/06/13 01:54:45;;;;;;;5.07;4.67;;;15.90;1.00;;;;;;5051557;28;20421;-70
2023/06/13 01:57:16;;;;;;;5.43;4.93;;;15.90;1.00;;;;;;5051588;28;20901;-70
2023/06/13 01:59:43;;;;;;;5.77;5.17;;;15.80;1.00;;;;;;5051733;28;20424;-70
2023/06/13 02:02:10;;;;;;;5.53;5.03;;;15.80;1.00;;;;;;5051387;28;20420;-70
2023/06/13 02:04:40;;;;;;;5.80;5.40;;;15.70;1.00;;;;;;5051379;28;20949;-70
2023/06/13 02:07:06;;;;;;;5.93;5.10;;;15.70;1.10;;;;;;5051495;28;20412;-70
2023/06/13 02:09:32;;;;;;;8.23;4.83;;;15.60;1.30;;;;;;5050065;28;20448;-70
2023/06/13 02:11:57;;;;;;;4.60;4.20;;;15.60;1.60;;;;;;5051238;28;20416;-70
2023/06/13 02:14:23;;;;;;;4.53;4.10;;;15.60;1.60;;;;;;5051447;28;20181;-70
2023/06/13 02:16:49;;;;;;;5.13;4.63;;;15.60;1.60;;;;;;5051379;28;20190;-70
2023/06/13 02:19:15;;;;;;;5.33;4.93;;;15.50;1.70;;;;;;5051292;28;20443;-70
2023/06/13 02:21:45;;;;;;;5.20;4.20;;;15.50;1.70;;;;;;5050965;28;20180;-70
2023/06/13 02:24:14;;;;;;;5.47;5.00;;;15.50;1.80;;;;;;5051407;28;20281;-70
2023/06/13 02:26:41;;;;;;;4.80;4.40;;;15.50;1.90;;;;;;5050007;28;20443;-70
2023/06/13 02:29:07;;;;;;;4.87;4.47;;;15.50;1.90;;;;;;5055118;28;20943;-70
2023/06/13 02:31:35;;;;;;;4.70;4.30;;;15.50;2.20;;;;;;5057577;28;20572;-70
2023/06/13 02:34:01;;;;;;;6.10;5.60;;;15.40;2.20;;;;;;5057846;28;20419;-70
2023/06/13 02:36:27;;;;;;;5.57;4.73;;;15.40;2.30;;;;;;5056568;28;20422;-70
2023/06/13 02:38:53;;;;;;;5.73;5.23;;;15.30;2.50;;;;;;5057705;28;20473;-70
2023/06/13 02:41:18;;;;;;;5.90;5.23;;;15.20;2.50;;;;;;5056386;28;20181;-70
2023/06/13 02:43:44;;;;;;;5.50;5.00;;;15.20;2.80;;;;;;5057473;28;20175;-70
2023/06/13 02:46:10;;;;;;;5.77;5.30;;;15.10;2.80;;;;;;5056321;28;20185;-70
2023/06/13 02:48:36;;;;;;;4.80;4.40;;;15.10;2.90;;;;;;5057615;28;20209;-71
2023/06/13 02:51:02;;;;;;;5.30;4.20;;;15.00;3.30;;;;;;5057984;28;20470;-70
2023/06/13 02:53:28;;;;;;;5.23;4.13;;;15.00;3.30;;;;;;5057481;28;20309;-69
2023/06/13 02:55:54;;;;;;;5.57;4.97;;;15.00;3.40;;;;;;5057714;28;20504;-70
2023/06/13 02:58:20;;;;;;;5.43;4.03;;;15.00;3.40;;;;;;5057506;28;20555;-70
2023/06/13 03:00:47;;;;;;;5.00;4.60;;;14.90;3.70;;;;;;5057589;28;21174;-70
2023/06/13 03:03:12;;;;;;;4.93;4.47;;;14.90;4.10;;;;;;5057271;28;20174;-70
2023/06/13 03:05:38;;;;;;;5.27;4.77;;;14.90;4.00;;;;;;5057372;28;20468;-70
2023/06/13 03:08:04;;;;;;;5.27;4.47;;;14.80;3.60;;;;;;5057385;28;20589;-70
2023/06/13 03:10:33;;;;;;;5.10;4.60;;;14.90;4.00;;;;;;5057422;28;20654;-70
2023/06/13 03:12:58;;;;;;;5.30;4.80;;;14.80;4.00;;;;;;5057063;28;20181;-71
2023/06/13 03:15:24;;;;;;;4.60;4.13;;;14.80;4.00;;;;;;5057231;28;20419;-70
2023/06/13 03:17:49;;;;;;;5.00;4.60;;;14.80;4.00;;;;;;5057211;28;20249;-70
2023/06/13 03:20:16;;;;;;;4.70;4.20;;;14.80;4.00;;;;;;5057313;28;20244;-70
2023/06/13 03:22:41;;;;;;;5.03;4.53;;;14.80;4.00;;;;;;5056968;28;20189;-70
2023/06/13 03:25:07;;;;;;;4.87;4.47;;;14.80;4.00;;;;;;5057383;28;20464;-70
2023/06/13 03:27:33;;;;;;;5.10;4.60;;;14.70;3.90;;;;;;5057597;28;20193;-70
2023/06/13 03:29:59;;;;;;;4.93;4.47;;;14.70;3.90;;;;;;5057150;28;20172;-70
2023/06/13 03:32:24;;;;;;;4.83;4.40;;;14.70;4.20;;;;;;5057038;28;20414;-70
2023/06/13 03:34:52;;;;;;;6.50;5.20;;;14.60;4.80;;;;;;5057377;28;20459;-71
2023/06/13 03:37:18;;;;;;;7.17;4.90;;;14.50;4.80;;;;;;5057017;28;20168;-71
2023/06/13 03:39:44;;;;;;;6.43;4.30;;;14.50;4.70;;;;;;5054440;28;20465;-70
2023/06/13 03:42:10;;;;;;;5.27;4.77;;;14.50;3.80;;;;;;5054101;28;20184;-70
2023/06/13 03:44:39;;;;;;;5.33;3.93;;;14.50;4.00;;;;;;5054393;28;20204;-70
2023/06/13 03:47:05;;;;;;;4.83;4.27;;;14.40;4.10;;;;;;5054341;28;20930;-70
2023/06/13 03:49:30;;;;;;;4.40;4.00;;;14.40;3.70;;;;;;5052775;28;20446;-70
2023/06/13 03:51:56;;;;;;;4.90;4.40;;;14.40;3.70;;;;;;5053741;28;20902;-70
2023/06/13 03:54:21;;;;;;;5.47;4.40;;;14.40;4.10;;;;;;5053889;28;20187;-70
2023/06/13 03:56:48;;;;;;;5.03;3.43;;;14.40;4.60;;;;;;5053469;28;20183;-70
2023/06/13 03:59:13;;;;;;;5.50;4.30;;;14.30;5.40;;;;;;5053711;28;20237;-71
2023/06/13 04:01:41;;;;;;;7.93;4.50;;;14.20;5.40;;;;;;5053384;28;20455;-71
2023/06/13 04:04:07;;;;;;;5.80;4.03;;;14.20;4.40;;;;;;5053744;28;20238;-70
2023/06/13 04:06:36;;;;;;;5.53;3.87;;;14.30;4.00;;;;;;5053666;28;20480;-70
2023/06/13 04:09:05;;;;;;;4.80;4.40;;;14.40;4.10;;;;;;5052112;28;20806;-70
2023/06/13 04:11:31;;;;;;;7.47;4.97;;;14.40;4.20;;;;;;5051697;28;20479;-70
2023/06/13 04:13:56;;;;;;;7.57;4.63;;;14.40;4.50;;;;;;5052029;28;20429;-70
2023/06/13 04:16:22;;;;;;;4.93;3.77;;;14.50;2.90;;;;;;5053463;28;20983;-70
2023/06/13 04:18:48;;;;;;;5.53;4.40;;;14.60;2.10;;;;;;5051225;28;20237;-70
2023/06/13 04:21:14;;;;;;;5.43;4.43;;;14.70;2.40;;;;;;5040791;28;20176;-71
2023/06/13 04:23:39;;;;;;;4.87;3.90;;;14.70;2.30;;;;;;5042950;28;20180;-70
2023/06/13 04:26:05;;;;;;;4.30;3.77;;;14.80;1.60;;;;;;5042372;28;20512;-69
2023/06/13 04:28:32;;;;;;;5.40;4.50;;;14.80;1.20;;;;;;5043545;28;20230;-68
2023/06/13 04:30:58;;;;;;;4.17;3.77;;;14.90;1.10;;;;;;5045245;28;20501;-69
2023/06/13 04:33:24;;;;;;;4.83;4.43;;;14.90;1.30;;;;;;5040678;28;20523;-69
2023/06/13 04:35:50;;;;;;;4.70;4.23;;;14.90;1.10;;;;;;5033180;28;20208;-69
2023/06/13 04:38:20;;;;;;;6.23;4.37;;;15.00;1.10;;;;;;5052236;23;20840;-69
2023/06/13 04:40:46;;;;;;;4.30;3.90;;;15.00;1.10;;;;;;5013701;28;20440;-68
2023/06/13 04:43:14;;;;;;;4.37;4.07;;;15.00;1.30;;;;;;5013435;28;20478;-68
2023/06/13 04:45:42;;;;;;;4.63;3.90;;;15.00;1.00;;;;;;5013725;28;20915;-68
2023/06/13 04:48:10;;;;;;;5.10;4.60;;;15.00;1.00;;;;;;5013678;28;20434;-68
2023/06/13 04:50:40;;;;;;;4.90;4.43;;;15.10;1.00;;;;;;5012348;28;20423;-68
2023/06/13 04:53:08;;;;;;;4.67;4.27;;;15.20;1.00;;;;;;5013184;28;20415;-68
2023/06/13 04:55:37;;;;;;;4.90;4.40;;;15.20;1.00;;;;;;5014558;28;20511;-68
2023/06/13 04:58:03;;;;;;;4.60;4.27;;;15.30;1.00;;;;;;5031527;28;20471;-69
2023/06/13 05:00:29;;;;;;;4.97;4.57;;;15.40;1.00;;;;;;5018059;28;20434;-68
2023/06/13 05:03:00;;;;;;;5.87;5.00;;;15.40;1.00;;;;;;5033206;28;20523;-69
2023/06/13 05:05:25;;;;;;;5.80;4.50;;;15.50;1.00;;;;;;5034381;28;20969;-70
2023/06/13 05:07:55;;;;;;;4.50;4.10;;;15.50;1.00;;;;;;5033868;28;20450;-68
2023/06/13 05:10:25;;;;;;;5.73;4.97;;;15.60;1.00;;;;;;5034343;28;20215;-68
2023/06/13 05:12:51;;;;;;;5.03;4.60;;;15.70;1.00;;;;;;5031291;28;20472;-69
2023/06/13 05:15:18;;;;;;;4.53;4.13;;;15.80;1.00;;;;;;5033023;28;20420;-69
2023/06/13 05:17:48;;;;;;;4.60;4.20;;;15.80;1.00;;;;;;5032849;28;20424;-69
2023/06/13 05:20:14;;;;;;;4.10;3.67;;;15.90;1.00;;;;;;5032852;28;20433;-69
2023/06/13 05:22:41;;;;;;;4.83;4.43;;;16.00;1.00;;;;;;5032332;28;20471;-69
2023/06/13 05:25:09;;;;;;;4.63;4.33;;;16.00;1.00;;;;;;5032590;28;20531;-69
2023/06/13 05:27:35;;;;;;;5.43;4.23;;;16.10;1.00;;;;;;5032460;28;20410;-69
2023/06/13 05:30:01;;;;;;;9.33;4.57;;;16.20;1.00;;;;;;5031395;28;20426;-70
2023/06/13 05:32:27;;;;;;;6.50;4.87;;;16.30;1.00;;;;;;5032837;28;20513;-69
2023/06/13 05:34:52;;;;;;;4.37;4.07;;;16.50;1.00;;;;;;5032441;28;20420;-69
2023/06/13 05:37:18;;;;;;;4.40;4.00;;;16.60;1.00;;;;;;5032886;28;20283;-69
2023/06/13 05:39:44;;;;;;;4.40;4.10;;;16.80;1.00;;;;;;5032818;28;20213;-69
2023/06/13 05:42:10;;;;;;;4.63;3.90;;;17.10;1.00;;;;;;5032452;28;20899;-69
2023/06/13 05:44:36;;;;;;;5.37;4.97;;;18.10;1.00;;;;;;5032677;28;20202;-69
2023/06/13 05:47:01;;;;;;;4.63;4.23;;;18.60;1.00;;;;;;5031082;28;20501;-69
2023/06/13 05:49:27;;;;;;;8.10;5.43;;;18.70;1.00;;;;;;5031487;28;20199;-69
2023/06/13 05:51:53;;;;;;;5.80;5.07;;;18.70;1.00;;;;;;5030827;28;20175;-69
2023/06/13 05:54:19;;;;;;;5.67;5.00;;;20.00;1.00;;;;;;5032349;28;20493;-69
2023/06/13 05:56:45;;;;;;;5.53;5.13;;;21.40;1.00;;;;;;5031955;28;20653;-70
2023/06/13 05:59:14;;;;;;;4.70;4.30;;;22.40;1.00;;;;;;5031996;28;20436;-69
2023/06/13 06:01:43;;;;;;;8.93;5.63;;;23.90;1.00;;;;;;5031744;28;20253;-70
2023/06/13 06:04:09;;;;;;;6.70;4.10;;;23.70;1.00;;;;;;5031131;28;20494;-69
2023/06/13 06:06:35;;;;;;;7.70;4.50;;;24.10;1.00;;;;;;5031892;28;20446;-69
2023/06/13 06:09:00;;;;;;;5.50;5.00;;;25.60;1.00;;;;;;5031725;28;20195;-69
2023/06/13 06:11:27;;;;;;;6.37;5.77;;;26.40;1.00;;;;;;5030493;28;20432;-69
2023/06/13 06:13:52;;;;;;;5.80;5.30;;;26.60;1.00;;;;;;5031714;28;20172;-69
2023/06/13 06:16:18;;;;;;;6.00;5.03;;;27.90;1.00;;;;;;5031672;28;20414;-69
2023/06/13 06:18:43;;;;;;;6.80;6.10;;;27.90;1.00;;;;;;5032002;28;20191;-69
2023/06/13 06:21:09;;;;;;;5.93;5.53;;;28.40;1.00;;;;;;5031669;28;20176;-69
2023/06/13 06:23:36;;;;;;;6.03;5.53;;;28.40;1.00;;;;;;5031450;28;20167;-69
2023/06/13 06:26:02;;;;;;;5.33;4.80;;;29.00;1.00;;;;;;5031549;28;20171;-69
2023/06/13 06:28:27;;;;;;;6.63;6.07;;;30.20;1.00;;;;;;5031692;28;20591;-69
2023/06/13 06:30:53;;;;;;;6.07;5.67;;;30.70;1.00;;;;;;5031632;28;20585;-69
2023/06/13 06:33:18;;;;;;;6.13;5.57;;;29.70;1.00;;;;;;5031435;28;20259;-69
2023/06/13 06:35:44;;;;;;;6.00;5.40;;;29.90;1.00;;;;;;5031629;28;20183;-69
2023/06/13 06:38:10;;;;;;;5.80;5.37;;;29.80;1.00;;;;;;5031427;28;20223;-70
2023/06/13 06:40:35;;;;;;;6.90;6.30;;;30.80;1.00;;;;;;5031654;28;20180;-69
2023/06/13 06:43:01;;;;;;;6.67;6.17;;;30.90;1.00;;;;;;5030073;28;20434;-70
2023/06/13 06:45:26;;;;;;;7.10;5.67;;;29.60;1.00;;;;;;5031473;28;20210;-69
2023/06/13 06:47:52;;;;;;;6.37;5.77;;;29.20;1.00;;;;;;5031500;28;20187;-70
2023/06/13 06:50:17;;;;;;;9.00;5.10;;;29.70;1.00;;;;;;5030334;28;20734;-69
2023/06/13 06:52:43;;;;;;;5.47;5.07;;;29.10;1.00;;;;;;5031358;28;20715;-70
2023/06/13 06:55:09;;;;;;;5.77;5.27;;;30.40;1.00;;;;;;5031626;28;20211;-70
2023/06/13 06:57:34;;;;;;;5.73;5.20;;;31.20;1.00;;;;;;5031354;28;20206;-69
2023/06/13 07:00:00;;;;;;;6.50;5.30;;;33.00;1.00;;;;;;5031064;28;20187;-69
2023/06/13 07:02:26;;;;;;;5.70;5.30;;;34.40;1.00;;;;;;5030642;28;20262;-69
2023/06/13 07:04:51;;;;;;;6.20;5.80;;;35.30;1.00;;;;;;5029025;28;20306;-70
2023/06/13 07:07:17;;;;;;;5.17;4.77;;;34.80;1.00;;;;;;5031211;28;20199;-71
2023/06/13 07:09:43;;;;;;;5.00;4.70;;;35.20;1.00;;;;;;5031090;28;20254;-71
2023/06/13 07:12:08;;;;;;;5.73;5.33;;;35.10;1.00;;;;;;5031126;28;20274;-72
2023/06/13 07:14:34;;;;;;;6.73;5.80;;;35.70;1.00;;;;;;5031435;28;20183;-71
2023/06/13 07:17:00;;;;;;;5.70;5.30;;;36.70;1.00;;;;;;5034541;28;20190;-71
2023/06/13 07:19:25;;;;;;;14.30;6.40;;;37.90;1.00;;;;;;5035087;28;20481;-71
2023/06/13 07:21:51;;;;;;;6.10;5.47;;;37.20;1.00;;;;;;5035001;28;20199;-71
2023/06/13 07:24:17;;;;;;;6.23;5.70;;;37.30;1.00;;;;;;5034901;28;20203;-71
2023/06/13 07:26:42;;;;;;;6.43;5.97;;;35.80;1.00;;;;;;5035302;28;20499;-71
2023/06/13 07:29:08;;;;;;;6.77;5.73;;;34.60;1.00;;;;;;5050307;28;20206;-71
2023/06/13 07:31:33;;;;;;;16.47;6.77;;;34.80;1.00;;;;;;5034306;28;20629;-71
2023/06/13 07:33:59;;;;;;;6.97;6.30;;;35.70;1.00;;;;;;5034697;28;20233;-71
2023/06/13 07:36:24;;;;;;;7.40;5.30;;;35.70;1.00;;;;;;5034812;28;20274;-71
2023/06/13 07:38:50;;;;;;;5.80;5.40;;;36.60;1.00;;;;;;5034444;28;20254;-71
2023/06/13 07:41:16;;;;;;;6.13;5.40;;;35.40;1.00;;;;;;5034481;28;20254;-70
2023/06/13 07:43:42;;;;;;;5.77;5.37;;;35.60;1.00;;;;;;5034764;28;20903;-71
2023/06/13 07:46:07;;;;;;;6.00;5.50;;;35.50;1.00;;;;;;5036751;28;20205;-70
2023/06/13 07:48:33;;;;;;;6.13;5.73;;;35.20;1.00;;;;;;5038041;28;20214;-71
2023/06/13 07:50:58;;;;;;;7.20;5.97;;;35.50;1.00;;;;;;5037671;28;20182;-71
2023/06/13 07:53:24;;;;;;;9.77;5.90;;;34.70;1.00;;;;;;5035308;28;20274;-71
2023/06/13 07:55:51;;;;;;;5.80;5.40;;;33.40;1.00;;;;;;5037305;28;20179;-71
2023/06/13 07:58:17;;;;;;;7.13;5.10;;;32.40;1.00;;;;;;5037103;28;20191;-71
2023/06/13 08:00:42;;;;;;;5.90;5.50;;;33.50;1.00;;;;;;5037309;28;20430;-71
2023/06/13 08:03:08;;;;;;;6.03;5.53;;;34.10;1.00;;;;;;5038465;28;20183;-71
2023/06/13 08:05:34;;;;;;;6.10;5.70;;;34.10;1.00;;;;;;5037732;28;20569;-71
2023/06/13 08:07:59;;;;;;;6.27;5.77;;;34.00;1.00;;;;;;5038833;28;20203;-71
2023/06/13 08:10:28;;;;;;;7.07;6.47;;;34.60;1.00;;;;;;5041366;28;20174;-71
2023/06/13 08:12:53;;;;;;;6.87;6.20;;;35.20;1.00;;;;;;5040717;28;20179;-71
2023/06/13 08:15:19;;;;;;;6.60;6.10;;;35.90;1.00;;;;;;5042288;28;20436;-71
2023/06/13 08:17:45;;;;;;;43.23;6.53;;;36.70;1.00;;;;;;5040629;28;20699;-71
2023/06/13 08:20:11;;;;;;;6.07;5.60;;;34.20;1.00;;;;;;5040776;28;20468;-71
2023/06/13 08:22:38;;;;;;;5.93;5.23;;;34.10;1.00;;;;;;5038826;28;20187;-71
2023/06/13 08:25:07;;;;;;;5.83;5.33;;;34.50;1.00;;;;;;5040869;28;20203;-71
2023/06/13 08:27:32;;;;;;;6.10;5.70;;;36.40;1.00;;;;;;5041897;28;20426;-71
2023/06/13 08:29:58;;;;;;;6.23;5.83;;;36.20;1.00;;;;;;5040045;28;21129;-71
2023/06/13 08:32:24;;;;;;;5.87;5.47;;;34.60;1.00;;;;;;5038351;28;20546;-71
2023/06/13 08:34:50;;;;;;;7.27;5.70;;;34.00;1.00;;;;;;5037404;28;20189;-71
2023/06/13 08:37:15;;;;;;;6.00;5.60;;;34.60;1.00;;;;;;5038889;28;20450;-71
2023/06/13 08:39:41;;;;;;;6.13;5.53;;;34.40;1.00;;;;;;5039443;28;20219;-71
2023/06/13 08:42:07;;;;;;;5.97;5.57;;;36.00;1.00;;;;;;5041229;28;20222;-71
2023/06/13 08:44:33;;;;;;;6.30;5.67;;;36.90;1.00;;;;;;5041062;28;20238;-71
2023/06/13 08:46:59;;;;;;;6.17;5.77;;;35.90;1.00;;;;;;5039410;28;20410;-71
2023/06/13 08:49:25;;;;;;;6.57;6.07;;;34.80;1.00;;;;;;5038901;28;20230;-71
2023/06/13 08:51:54;;;;;;;9.80;5.97;;;34.00;1.00;;;;;;5040714;28;20406;-71
2023/06/13 08:54:21;;;;;;;5.30;4.90;;;34.70;1.00;;;;;;5042014;28;20218;-71
2023/06/13 08:56:50;;;;;;;6.43;5.87;;;36.00;1.00;;;;;;5042657;28;20444;-71
2023/06/13 08:59:26;;;;;;;7.07;6.60;;;36.60;1.00;;;;;;5041444;28;20935;-71
2023/06/13 09:01:52;;;;;;;6.87;6.20;;;36.50;1.00;;;;;;5042180;28;20413;-72
2023/06/13 09:04:19;;;;;;;6.70;6.23;;;36.80;1.00;;;;;;5041487;28;20465;-71
2023/06/13 09:06:45;;;;;;;6.23;5.73;;;37.60;1.00;;;;;;5040906;28;20448;-71
2023/06/13 09:09:12;;;;;;;6.70;6.20;;;36.70;1.00;;;;;;5039863;28;20446;-71
2023/06/13 09:11:38;;;;;;;6.80;6.33;;;36.30;1.00;;;;;;5037816;28;20568;-71
2023/06/13 09:14:06;;;;;;;6.63;6.13;;;33.90;1.00;;;;;;5036791;28;20452;-71
2023/06/13 09:16:32;;;;;;;5.80;5.30;;;33.90;1.00;;;;;;5036443;28;20180;-70
2023/06/13 09:18:59;;;;;;;8.90;7.80;;;31.70;1.00;;;;;;5034918;28;20481;-70
2023/06/13 09:21:25;;;;;;;12.17;6.77;;;29.40;1.00;;;;;;5035449;28;20467;-70
2023/06/13 09:23:55;;;;;;;6.40;5.90;;;27.30;1.00;;;;;;5035849;28;20410;-71
2023/06/13 09:26:21;;;;;;;15.57;6.37;;;26.00;1.00;;;;;;5034861;28;20414;-70
2023/06/13 09:28:50;;;;;;;6.27;5.77;;;25.00;1.00;;;;;;5035003;28;20521;-71
2023/06/13 09:31:16;;;;;;;6.23;5.77;;;24.60;1.00;;;;;;5036941;28;20176;-71
2023/06/13 09:33:44;;;;;;;5.73;5.20;;;24.10;1.00;;;;;;5037441;28;20502;-71
2023/06/13 09:36:10;;;;;;;6.97;6.47;;;23.80;1.00;;;;;;5037827;28;20443;-71
2023/06/13 09:38:41;;;;;;;6.70;6.20;;;23.70;1.00;;;;;;5037272;28;20971;-70
2023/06/13 09:41:10;;;;;;;6.10;5.60;;;23.60;1.00;;;;;;5035461;28;20262;-71
2023/06/13 09:43:38;;;;;;;6.60;6.00;;;23.70;1.00;;;;;;5033557;28;20835;-71
2023/06/13 09:46:03;;;;;;;13.13;7.47;;;23.80;1.00;;;;;;5034925;28;20835;-71
2023/06/13 09:48:29;;;;;;;7.13;6.63;;;23.70;1.00;;;;;;5033866;28;20450;-70
2023/06/13 09:50:55;;;;;;;6.93;5.93;;;23.60;1.00;;;;;;5035440;28;20172;-70
2023/06/13 09:53:21;;;;;;;12.50;5.27;;;23.50;1.00;;;;;;5034421;28;20405;-71
2023/06/13 09:55:48;;;;;;;6.20;5.50;;;23.40;1.00;;;;;;5035367;28;20186;-71
2023/06/13 09:58:15;;;;;;;5.53;5.20;;;23.40;1.00;;;;;;5035552;28;20480;-72
2023/06/13 10:00:41;;;;;;;7.43;5.97;;;23.50;1.00;;;;;;5035919;28;20433;-71
2023/06/13 10:03:08;;;;;;;5.97;5.47;;;23.50;1.00;;;;;;5034923;28;20430;-71
2023/06/13 10:05:37;;;;;;;6.60;5.90;;;23.50;1.00;;;;;;5035645;28;20462;-71
2023/06/13 10:08:03;;;;;;;6.03;5.50;;;23.40;1.00;;;;;;5035590;28;20437;-71
2023/06/13 10:10:28;;;;;;;8.30;5.50;;;23.40;1.00;;;;;;5035564;28;20445;-71
2023/06/13 10:13:00;;;;;;;5.27;4.87;;;23.30;1.00;;;;;;5032048;28;20266;-71
2023/06/13 10:15:42;;;;;;;5.53;5.03;;;23.30;1.00;;;;;;5031950;28;20190;-72
2023/06/13 10:18:19;;;;;;;5.87;5.47;;;23.40;1.00;;;;;;5030432;28;20441;-72
2023/06/13 10:20:47;;;;;;;6.07;5.70;;;23.40;1.00;;;;;;5030260;28;20882;-71
2023/06/13 10:23:18;;;;;;;7.80;5.80;;;23.30;1.00;;;;;;5030165;28;20473;-71
2023/06/13 10:25:47;;;;;;;5.43;5.13;;;23.50;1.00;;;;;;5030326;28;20588;-70
2023/06/13 10:28:39;;;;;;;5.20;4.80;;;23.60;1.00;;;;;;5031431;28;20520;-70
2023/06/13 10:31:26;;;;;;;6.30;5.67;;;23.70;1.00;;;;;;5032016;28;20438;-70
2023/06/13 10:33:52;;;;;;;6.00;5.50;;;23.80;1.00;;;;;;5032895;28;20414;-71
2023/06/13 10:36:33;;;;;;;6.10;5.60;;;23.60;1.00;;;;;;5031707;28;20442;-70
2023/06/13 10:39:20;;;;;;;6.83;6.13;;;23.60;1.00;;;;;;5035466;23;20507;-74
2023/06/13 10:42:08;;;;;;;6.13;5.57;;;23.40;1.00;;;;;;4992110;28;20543;-75
2023/06/13 10:45:02;;;;;;;6.00;5.60;;;23.50;1.00;;;;;;4992306;28;20460;-75
2023/06/13 10:47:29;;;;;;;6.60;6.00;;;23.80;1.00;;;;;;4992352;28;20412;-75
2023/06/13 10:49:57;;;;;;;5.70;5.30;;;23.80;1.00;;;;;;4993907;28;20431;-75
2023/06/13 10:52:23;;;;;;;5.90;5.40;;;23.80;1.00;;;;;;4996276;28;20419;-75
2023/06/13 10:55:04;;;;;;;5.93;5.53;;;23.90;1.00;;;;;;4996055;28;20502;-75
2023/06/13 10:57:49;;;;;;;6.47;5.87;;;23.90;1.00;;;;;;4996240;28;20441;-73
2023/06/13 11:00:26;;;;;;;6.03;5.43;;;23.90;1.00;;;;;;4996291;28;20419;-73
2023/06/13 11:03:00;;;;;;;7.13;5.70;;;24.00;1.00;;;;;;4995671;28;20411;-74
2023/06/13 11:05:26;;;;;;;20.43;7.93;;;24.30;1.00;;;;;;4995693;28;20955;-73
2023/06/13 11:07:55;;;;;;;7.00;6.40;;;24.10;1.00;;;;;;4995683;28;20495;-73
2023/06/13 11:10:22;;;;;;;6.07;5.67;;;24.20;1.00;;;;;;4995743;28;20984;-73
2023/06/13 11:12:49;;;;;;;6.00;5.57;;;24.10;1.00;;;;;;4995571;28;20968;-74
2023/06/13 11:15:22;;;;;;;6.10;5.70;;;24.20;1.00;;;;;;4995820;28;20423;-74
2023/06/13 11:18:03;;;;;;;5.80;5.40;;;24.20;1.00;;;;;;4995667;28;20415;-73
2023/06/13 11:20:31;;;;;;;14.03;7.03;;;24.30;1.00;;;;;;4995468;28;20419;-74
2023/06/13 11:22:56;;;;;;;6.97;6.27;;;24.60;1.00;;;;;;4995493;28;20423;-74
2023/06/13 11:25:23;;;;;;;6.10;5.60;;;24.60;1.00;;;;;;4995482;28;20862;-74
2023/06/13 11:27:49;;;;;;;8.27;6.20;;;24.70;1.00;;;;;;4995502;28;20177;-74
2023/06/13 11:30:15;;;;;;;10.43;6.47;;;24.90;1.00;;;;;;4995580;28;20478;-74
2023/06/13 11:32:43;;;;;;;6.17;5.70;;;25.00;1.00;;;;;;4995169;28;20784;-73
2023/06/13 11:35:10;;;;;;;6.40;5.80;;;24.90;1.00;;;;;;4996327;28;20722;-74
2023/06/13 11:37:44;;;;;;;6.73;6.30;;;24.90;1.00;;;;;;4995781;28;20447;-74
2023/06/13 11:40:22;;;;;;;8.93;7.27;;;25.00;1.00;;;;;;4995205;28;20838;-74
2023/06/13 11:42:50;;;;;;;6.27;5.70;;;25.20;1.00;;;;;;4995200;28;20466;-74
2023/06/13 11:45:16;;;;;;;6.27;5.53;;;25.10;1.00;;;;;;4995091;28;20956;-74
2023/06/13 11:47:44;;;;;;;5.50;5.10;;;24.90;1.00;;;;;;4993866;28;20481;-74
2023/06/13 11:50:10;;;;;;;6.77;6.27;;;24.80;1.00;;;;;;4995049;28;20954;-75
2023/06/13 11:52:36;;;;;;;6.97;6.37;;;24.80;1.00;;;;;;4995128;28;20658;-76
2023/06/13 11:55:16;;;;;;;6.37;5.87;;;24.90;1.00;;;;;;4995287;28;20494;-74
2023/06/13 11:57:50;;;;;;;7.00;6.50;;;25.10;1.00;;;;;;4995025;28;20172;-74
2023/06/13 12:00:16;;;;;;;6.23;5.70;;;25.10;1.00;;;;;;4995352;28;20507;-74
2023/06/13 12:02:42;;;;;;;6.57;6.07;;;25.20;1.00;;;;;;4993629;28;21010;-75
2023/06/13 12:05:10;;;;;;;7.23;5.93;;;25.40;1.00;;;;;;4995019;28;20231;-75
2023/06/13 12:07:36;;;;;;;6.63;5.80;;;25.50;1.00;;;;;;4995397;28;20173;-75
2023/06/13 12:10:03;;;;;;;7.27;6.67;;;25.60;1.00;;;;;;4995395;28;20535;-75
2023/06/13 12:12:28;;;;;;;6.13;5.53;;;25.70;1.00;;;;;;4994915;28;20200;-74
2023/06/13 12:14:54;;;;;;;6.10;5.47;;;25.70;1.00;;;;;;4995238;28;20893;-74
2023/06/13 12:17:21;;;;;;;6.50;5.97;;;25.70;1.00;;;;;;4995070;28;20234;-75
2023/06/13 12:19:46;;;;;;;7.00;6.50;;;25.70;1.00;;;;;;4994856;28;20522;-75
2023/06/13 12:22:15;;;;;;;6.17;5.67;;;25.50;1.00;;;;;;4994761;28;20907;-74
2023/06/13 12:24:41;;;;;;;5.63;5.23;;;25.50;1.00;;;;;;4993456;28;20208;-75
2023/06/13 12:27:07;;;;;;;6.97;6.13;;;25.60;1.00;;;;;;4993324;28;20426;-75
2023/06/13 12:29:34;;;;;;;6.53;5.60;;;25.80;1.00;;;;;;4994540;28;20197;-74
2023/06/13 12:32:03;;;;;;;9.43;6.00;;;26.00;1.00;;;;;;4994319;28;20176;-74
2023/06/13 12:34:31;;;;;;;5.70;5.30;;;26.10;1.00;;;;;;4994223;28;20424;-75
2023/06/13 12:37:04;;;;;;;18.37;8.13;;;26.10;1.00;;;;;;4994253;28;20547;-75
2023/06/13 12:39:30;;;;;;;6.90;5.90;;;26.00;1.00;;;;;;4994204;28;20832;-75
2023/06/13 12:42:08;;;;;;;7.13;6.47;;;25.80;1.00;;;;;;4993972;28;20454;-75
2023/06/13 12:44:35;;;;;;;5.90;5.40;;;25.90;1.00;;;;;;4994275;28;20467;-74
2023/06/13 12:47:02;;;;;;;6.10;5.70;;;26.10;1.00;;;;;;4994160;28;20419;-74
2023/06/13 12:49:35;;;;;;;5.60;5.07;;;26.20;1.00;;;;;;4994308;28;20432;-75
2023/06/13 12:52:00;;;;;;;6.53;5.60;;;26.20;1.00;;;;;;4994138;28;20415;-75
2023/06/13 12:54:26;;;;;;;6.83;6.23;;;26.30;1.00;;;;;;4992847;28;20523;-74
2023/06/13 12:56:53;;;;;;;7.10;6.30;;;26.30;1.00;;;;;;4993939;28;20635;-74
2023/06/13 12:59:27;;;;;;;6.87;6.30;;;26.20;1.00;;;;;;4994258;28;20204;-75
2023/06/13 13:01:52;;;;;;;6.93;6.30;;;25.90;1.00;;;;;;4993615;28;20951;-75